Time;durP1;ratioP1;P1;durP2;ratioP2;P2;SDS_P1;SDS_P2;PMS_P1;PMS_P2;Temp;Humidity;BMP_temperature;BMP_pressure;BME280_temperature;BME280_humidity;BME280_pressure;Samples;Min_cycle;Max_cycle;Signal;HPM_P1;HPM_P2
2023/04/29 00:01:04;;;;;;;;;;;;;;;13.62;100.00;96167.53;4985574;28;19973;-86
2023/04/29 00:03:31;;;;;;;;;;;;;;;13.68;100.00;96167.63;4986790;28;19964;-87
2023/04/29 00:05:58;;;;;;;;;;;;;;;13.67;100.00;96166.81;4984564;28;20115;-87
2023/04/29 00:08:26;;;;;;;;;;;;;;;13.63;100.00;96168.38;5011747;28;19942;-87
2023/04/29 00:10:53;;;;;;;;;;;;;;;13.61;100.00;96165.91;4982441;28;19991;-87
2023/04/29 00:13:20;;;;;;;;;;;;;;;13.63;100.00;96161.03;5011666;28;19948;-88
2023/04/29 00:15:46;;;;;;;;;;;;;;;13.67;100.00;96160.56;4987562;28;19926;-87
2023/04/29 00:18:13;;;;;;;;;;;;;;;13.67;100.00;96176.84;4985927;28;20023;-87
2023/04/29 00:20:42;;;;;;;;;;;;;;;13.70;100.00;96181.72;4991048;28;19973;-87
2023/04/29 00:23:08;;;;;;;;;;;;;;;13.72;100.00;96179.59;4981760;28;19947;-87
2023/04/29 00:25:37;;;;;;;;;;;;;;;13.74;100.00;96183.69;4980326;28;19961;-88
2023/04/29 00:28:04;;;;;;;;;;;;;;;13.72;100.00;96169.56;4987164;28;19929;-88
2023/04/29 00:30:32;;;;;;;;;;;;;;;13.71;100.00;96156.25;4987207;28;19967;-87
2023/04/29 00:32:59;;;;;;;;;;;;;;;13.64;100.00;96146.41;4989059;28;20014;-86
2023/04/29 00:35:26;;;;;;;;;;;;;;;13.64;100.00;96134.75;4987528;28;19956;-87
2023/04/29 00:37:53;;;;;;;;;;;;;;;13.66;100.00;96146.16;4992593;28;19950;-87
2023/04/29 00:40:20;;;;;;;;;;;;;;;13.59;100.00;96137.41;4991956;28;19971;-87
2023/04/29 00:42:48;;;;;;;;;;;;;;;13.53;100.00;96128.38;4974351;28;19990;-86
2023/04/29 00:45:15;;;;;;;;;;;;;;;13.48;100.00;96131.03;5015091;28;19949;-86
2023/04/29 00:47:41;;;;;;;;;;;;;;;13.48;100.00;96122.09;5019450;28;19952;-87
2023/04/29 00:50:09;;;;;;;;;;;;;;;13.45;100.00;96109.84;4989109;28;19953;-86
2023/04/29 00:52:38;;;;;;;;;;;;;;;13.42;100.00;96104.94;4978495;28;19956;-86
2023/04/29 00:55:06;;;;;;;;;;;;;;;13.39;100.00;96116.28;5010683;28;19946;-87
2023/04/29 00:57:33;;;;;;;;;;;;;;;13.37;100.00;96123.84;5019078;28;19956;-87
2023/04/29 01:00:02;;;;;;;;;;;;;;;13.35;100.00;96115.16;4988701;28;19973;-87
2023/04/29 01:02:30;;;;;;;;;;;;;;;13.42;100.00;96115.78;4984388;28;19962;-86
2023/04/29 01:04:57;;;;;;;;;;;;;;;13.38;100.00;96113.81;4987471;28;19948;-86
2023/04/29 01:07:28;;;;;;;;;;;;;;;13.33;100.00;96103.75;4989442;28;19925;-86
2023/04/29 01:10:01;;;;;;;;;;;;;;;13.29;100.00;96105.31;4999507;28;19951;-86
2023/04/29 01:12:33;;;;;;;;;;;;;;;13.28;100.00;96095.53;4980235;28;20002;-86
2023/04/29 01:15:04;;;;;;;;;;;;;;;13.30;100.00;96104.25;4983154;28;19964;-86
2023/04/29 01:17:36;;;;;;;;;;;;;;;13.32;100.00;96112.94;5020923;28;19967;-87
2023/04/29 01:20:04;;;;;;;;;;;;;;;13.33;100.00;96117.31;4988627;28;19933;-86
2023/04/29 01:22:31;;;;;;;;;;;;;;;13.35;100.00;96117.06;4990097;28;19970;-87
2023/04/29 01:24:59;;;;;;;;;;;;;;;13.35;100.00;96125.19;4989495;28;19950;-85
2023/04/29 01:27:30;;;;;;;;;;;;;;;13.36;100.00;96141.19;4998095;28;20076;-86
2023/04/29 01:30:09;;;;;;;;;;;;;;;13.34;100.00;96135.22;4995228;28;19975;-85
2023/04/29 01:32:43;;;;;;;;;;;;;;;13.36;100.00;96133.06;4986543;28;20371;-86
2023/04/29 01:35:16;;;;;;;;;;;;;;;13.39;100.00;96116.28;5012117;28;19951;-85
2023/04/29 01:37:49;;;;;;;;;;;;;;;13.36;100.00;96108.66;4974242;28;19969;-86
2023/04/29 01:40:19;;;;;;;;;;;;;;;13.38;100.00;96122.78;4990754;28;19966;-85
2023/04/29 01:43:04;;;;;;;;;;;;;;;13.45;100.00;96117.97;4980249;28;20014;-85
2023/04/29 01:45:34;;;;;;;;;;;;;;;13.40;100.00;96117.09;4998456;28;19953;-85
2023/04/29 01:48:01;;;;;;;;;;;;;;;13.40;100.00;96109.78;4988048;28;19957;-85
2023/04/29 01:50:31;;;;;;;;;;;;;;;13.37;100.00;96107.56;4988400;28;19952;-85
2023/04/29 01:53:06;;;;;;;;;;;;;;;13.33;100.00;96113.78;4988413;28;19970;-85
2023/04/29 01:55:35;;;;;;;;;;;;;;;13.32;100.00;96123.81;4988265;28;19994;-85
2023/04/29 01:58:12;;;;;;;;;;;;;;;13.34;100.00;96137.94;4988692;28;19951;-85
2023/04/29 02:01:10;;;;;;;;;;;;;;;13.37;100.00;96153.69;4990085;28;19962;-85
2023/04/29 02:03:37;;;;;;;;;;;;;;;13.34;100.00;96151.50;4984055;28;20024;-86
2023/04/29 02:06:07;;;;;;;;;;;;;;;13.27;100.00;96148.94;4992529;28;19954;-86
2023/04/29 02:08:35;;;;;;;;;;;;;;;13.19;100.00;96138.53;5013810;28;20004;-86
2023/04/29 02:11:03;;;;;;;;;;;;;;;13.14;100.00;96111.38;4988724;28;20045;-86
2023/04/29 02:13:41;;;;;;;;;;;;;;;13.05;100.00;96114.75;4986024;28;19974;-87
2023/04/29 02:16:09;;;;;;;;;;;;;;;13.00;100.00;96120.94;4988633;28;19978;-86
2023/04/29 02:18:38;;;;;;;;;;;;;;;12.96;100.00;96117.06;5019153;28;19955;-87
2023/04/29 02:21:06;;;;;;;;;;;;;;;12.92;100.00;96112.41;5011558;28;20016;-87
2023/04/29 02:23:35;;;;;;;;;;;;;;;12.92;100.00;96102.38;4987098;28;20053;-87
2023/04/29 02:26:05;;;;;;;;;;;;;;;12.86;100.00;96079.81;5019685;28;20033;-88
2023/04/29 02:28:32;;;;;;;;;;;;;;;12.85;100.00;96093.59;4999790;28;19959;-88
2023/04/29 02:30:58;;;;;;;;;;;;;;;12.94;100.00;96107.53;4987454;28;19998;-87
2023/04/29 02:33:27;;;;;;;;;;;;;;;13.09;100.00;96121.31;4987623;28;20009;-88
2023/04/29 02:35:54;;;;;;;;;;;;;;;13.21;100.00;96113.88;4987733;28;20067;-86
2023/04/29 02:38:22;;;;;;;;;;;;;;;13.23;100.00;96103.63;4987411;28;19949;-86
2023/04/29 02:40:49;;;;;;;;;;;;;;;13.21;100.00;96103.88;4985924;28;19981;-86
2023/04/29 02:43:17;;;;;;;;;;;;;;;13.15;100.00;96101.34;4988052;28;19959;-87
2023/04/29 02:45:45;;;;;;;;;;;;;;;13.04;100.00;96083.28;4988121;28;19947;-86
2023/04/29 02:48:12;;;;;;;;;;;;;;;12.97;100.00;96090.78;4988755;28;19950;-87
2023/04/29 02:50:40;;;;;;;;;;;;;;;12.94;100.00;96091.28;4983580;28;19973;-85
2023/04/29 02:53:07;;;;;;;;;;;;;;;12.92;100.00;96099.69;4980381;28;20048;-87
2023/04/29 02:55:34;;;;;;;;;;;;;;;12.86;100.00;96097.94;4987628;28;19948;-85
2023/04/29 02:58:07;;;;;;;;;;;;;;;12.82;100.00;96089.53;4983783;28;19949;-86
2023/04/29 03:00:35;;;;;;;;;;;;;;;12.79;100.00;96084.59;4979032;28;19972;-86
2023/04/29 03:03:02;;;;;;;;;;;;;;;12.73;100.00;96082.91;4983588;28;20021;-86
2023/04/29 03:05:29;;;;;;;;;;;;;;;12.68;100.00;96092.81;5019466;28;20007;-86
2023/04/29 03:07:55;;;;;;;;;;;;;;;12.71;100.00;96101.28;4987880;28;19962;-87
2023/04/29 03:10:22;;;;;;;;;;;;;;;12.77;100.00;96111.13;4991213;28;19988;-86
2023/04/29 03:12:49;;;;;;;;;;;;;;;12.76;100.00;96117.59;5014670;28;20001;-85
2023/04/29 03:15:16;;;;;;;;;;;;;;;12.71;100.00;96122.94;5009385;28;19991;-87
2023/04/29 03:17:46;;;;;;;;;;;;;;;12.67;100.00;96113.69;4987507;28;19962;-86
2023/04/29 03:20:13;;;;;;;;;;;;;;;12.61;100.00;96109.25;4985778;28;19950;-87
2023/04/29 03:22:40;;;;;;;;;;;;;;;12.56;100.00;96100.25;4989229;28;20098;-87
2023/04/29 03:25:09;;;;;;;;;;;;;;;12.55;100.00;96121.09;4988489;28;19949;-88
2023/04/29 03:27:37;;;;;;;;;;;;;;;12.59;100.00;96111.38;4986451;28;19956;-88
2023/04/29 03:30:04;;;;;;;;;;;;;;;12.64;100.00;96119.59;4982236;28;20007;-87
2023/04/29 03:32:33;;;;;;;;;;;;;;;12.62;100.00;96120.91;4985117;28;19955;-87
2023/04/29 03:35:02;;;;;;;;;;;;;;;12.56;100.00;96117.31;4988015;28;19952;-86
2023/04/29 03:37:37;;;;;;;;;;;;;;;12.49;100.00;96113.97;4988157;28;19948;-85
2023/04/29 03:40:27;;;;;;;;;;;;;;;12.57;100.00;96105.41;4983348;28;20044;-86
2023/04/29 03:42:54;;;;;;;;;;;;;;;12.50;100.00;96111.00;4983475;28;20025;-86
2023/04/29 03:45:21;;;;;;;;;;;;;;;12.55;100.00;96115.69;4987832;28;20083;-88
2023/04/29 03:47:48;;;;;;;;;;;;;;;12.54;100.00;96111.31;4983466;28;19950;-86
2023/04/29 03:50:20;;;;;;;;;;;;;;;12.61;100.00;96113.84;4989712;28;19955;-86
2023/04/29 03:52:47;;;;;;;;;;;;;;;12.60;100.00;96118.44;4989400;28;19947;-86
2023/04/29 03:55:16;;;;;;;;;;;;;;;12.56;100.00;96116.50;4988940;28;19973;-86
2023/04/29 03:57:44;;;;;;;;;;;;;;;12.48;100.00;96120.44;4985802;28;19926;-85
2023/04/29 04:00:13;;;;;;;;;;;;;;;12.46;100.00;96117.16;4992729;28;19929;-86
2023/04/29 04:02:43;;;;;;;;;;;;;;;12.43;100.00;96114.94;4994616;28;19978;-87
2023/04/29 04:05:11;;;;;;;;;;;;;;;12.43;100.00;96128.47;4986458;28;19954;-86
2023/04/29 04:07:41;;;;;;;;;;;;;;;12.41;100.00;96131.47;4988690;28;19949;-87
2023/04/29 04:10:35;;;;;;;;;;;;;;;12.34;100.00;96124.53;4994012;28;19951;-86
2023/04/29 04:13:06;;;;;;;;;;;;;;;12.34;100.00;96119.94;5022307;28;19926;-87
2023/04/29 04:15:33;;;;;;;;;;;;;;;12.28;100.00;96117.41;4989109;28;19934;-87
2023/04/29 04:18:00;;;;;;;;;;;;;;;12.30;100.00;96128.81;4987613;28;19930;-86
2023/04/29 04:20:28;;;;;;;;;;;;;;;12.34;100.00;96143.50;5006538;28;19971;-86
2023/04/29 04:22:56;;;;;;;;;;;;;;;12.29;100.00;96143.41;4991630;28;19930;-86
2023/04/29 04:25:27;;;;;;;;;;;;;;;12.35;100.00;96148.66;4985741;28;19926;-86
2023/04/29 04:27:59;;;;;;;;;;;;;;;12.34;100.00;96159.72;5018133;28;19940;-86
2023/04/29 04:30:48;;;;;;;;;;;;;;;12.34;100.00;96163.25;4989394;28;19926;-86
2023/04/29 04:33:17;;;;;;;;;;;;;;;12.33;100.00;96166.25;4983276;28;19930;-87
2023/04/29 04:35:46;;;;;;;;;;;;;;;12.36;100.00;96168.44;4986334;28;19933;-87
2023/04/29 04:38:16;;;;;;;;;;;;;;;12.34;100.00;96159.72;4987461;28;19946;-89
2023/04/29 04:40:46;;;;;;;;;;;;;;;12.34;100.00;96167.84;5000346;28;19933;-87
2023/04/29 04:43:29;;;;;;;;;;;;;;;12.27;100.00;96162.59;5010938;28;19930;-87
2023/04/29 04:45:57;;;;;;;;;;;;;;;12.20;100.00;96161.13;5012911;28;20009;-86
2023/04/29 04:48:27;;;;;;;;;;;;;;;12.16;100.00;96154.59;4987356;28;19926;-87
2023/04/29 04:50:57;;;;;;;;;;;;;;;12.13;100.00;96164.00;4983406;28;19929;-89
2023/04/29 04:53:26;;;;;;;;;;;;;;;12.11;100.00;96163.41;4990154;28;19941;-87
2023/04/29 04:56:00;;;;;;;;;;;;;;;12.08;100.00;96159.31;4987300;28;19959;-88
2023/04/29 04:58:27;;;;;;;;;;;;;;;12.10;100.00;96162.59;5016849;28;19934;-87
2023/04/29 05:00:54;;;;;;;;;;;;;;;12.08;100.00;96156.59;4985952;28;19934;-87
2023/04/29 05:03:22;;;;;;;;;;;;;;;12.10;100.00;96168.00;5017653;28;19926;-87
2023/04/29 05:05:53;;;;;;;;;;;;;;;12.12;100.00;96160.47;5011759;28;19977;-87
2023/04/29 05:08:21;;;;;;;;;;;;;;;12.11;100.00;96158.81;4989560;28;19926;-88
2023/04/29 05:10:50;;;;;;;;;;;;;;;12.06;100.00;96153.34;4975107;28;19930;-86
2023/04/29 05:13:20;;;;;;;;;;;;;;;12.08;100.00;96159.31;5016510;28;19965;-87
2023/04/29 05:15:47;;;;;;;;;;;;;;;12.06;100.00;96161.47;4986723;28;19977;-87
2023/04/29 05:18:20;;;;;;;;;;;;;;;12.06;100.00;96155.22;5019145;28;19930;-87
2023/04/29 05:20:49;;;;;;;;;;;;;;;12.04;100.00;96158.16;5016615;28;19938;-88
2023/04/29 05:23:16;;;;;;;;;;;;;;;12.09;100.00;96154.72;4990013;28;19972;-87
2023/04/29 05:25:46;;;;;;;;;;;;;;;12.07;100.00;96162.28;4992739;28;19926;-86
2023/04/29 05:28:14;;;;;;;;;;;;;;;12.10;100.00;96157.19;4984065;28;19948;-87
2023/04/29 05:30:43;;;;;;;;;;;;;;;12.04;100.00;96163.56;5018051;28;19932;-86
2023/04/29 05:33:10;;;;;;;;;;;;;;;12.03;100.00;96161.13;5019318;28;20012;-87
2023/04/29 05:35:37;;;;;;;;;;;;;;;12.04;100.00;96150.06;5001478;28;19930;-86
2023/04/29 05:38:04;;;;;;;;;;;;;;;12.05;100.00;96153.56;4991050;28;19926;-86
2023/04/29 05:40:36;;;;;;;;;;;;;;;12.10;100.00;96159.88;4984546;28;19926;-87
2023/04/29 05:43:36;;;;;;;;;;;;;;;12.10;100.00;96168.00;4976426;28;19930;-86
2023/04/29 05:46:03;;;;;;;;;;;;;;;12.20;100.00;96171.97;4986937;28;19980;-87
2023/04/29 05:48:30;;;;;;;;;;;;;;;12.23;100.00;96163.34;4987194;28;19997;-87
2023/04/29 05:50:57;;;;;;;;;;;;;;;12.24;100.00;96170.41;4979211;28;19930;-86
2023/04/29 05:53:25;;;;;;;;;;;;;;;12.25;100.00;96177.47;5020489;28;19926;-87
2023/04/29 05:55:52;;;;;;;;;;;;;;;12.27;100.00;96178.84;5024611;28;19929;-86
2023/04/29 05:58:21;;;;;;;;;;;;;;;12.29;100.00;96175.91;4989837;28;19992;-86
2023/04/29 06:00:49;;;;;;;;;;;;;;;12.29;100.00;96181.31;4984433;28;19926;-86
2023/04/29 06:03:21;;;;;;;;;;;;;;;12.25;100.00;96183.69;4978905;28;20027;-87
2023/04/29 06:05:52;;;;;;;;;;;;;;;12.31;100.00;96173.78;4976728;28;19962;-87
2023/04/29 06:08:31;;;;;;;;;;;;;;;12.20;100.00;96166.53;4973059;28;19932;-86
2023/04/29 06:11:04;;;;;;;;;;;;;;;12.22;100.00;96167.94;4983440;28;19930;-86
2023/04/29 06:13:31;;;;;;;;;;;;;;;12.30;100.00;96174.84;4972457;28;19958;-85
2023/04/29 06:16:00;;;;;;;;;;;;;;;12.32;100.00;96172.72;4977752;28;19962;-86
2023/04/29 06:18:30;;;;;;;;;;;;;;;12.36;100.00;96165.72;4989218;28;19930;-86
2023/04/29 06:20:58;;;;;;;;;;;;;;;12.43;100.00;96159.09;4978731;28;19926;-85
2023/04/29 06:23:25;;;;;;;;;;;;;;;12.46;100.00;96168.59;4987740;28;19940;-85
2023/04/29 06:25:52;;;;;;;;;;;;;;;12.42;100.00;96165.56;4977024;28;19926;-86
2023/04/29 06:28:19;;;;;;;;;;;;;;;12.52;100.00;96162.19;4984314;28;19976;-86
2023/04/29 06:30:46;;;;;;;;;;;;;;;12.57;100.00;96156.06;4978632;28;19952;-87
2023/04/29 06:33:15;;;;;;;;;;;;;;;12.58;100.00;96155.81;4989900;28;19934;-86
2023/04/29 06:35:42;;;;;;;;;;;;;;;12.59;100.00;96157.44;4986017;28;19933;-86
2023/04/29 06:38:32;;;;;;;;;;;;;;;12.69;100.00;96154.88;4979723;28;19948;-86
2023/04/29 06:41:22;;;;;;;;;;;;;;;12.78;100.00;96153.41;4986394;28;19980;-86
2023/04/29 06:43:50;;;;;;;;;;;;;;;12.83;100.00;96150.78;4984728;28;19929;-86
2023/04/29 06:46:39;;;;;;;;;;;;;;;12.86;100.00;96144.03;4991182;28;19962;-85
2023/04/29 06:49:17;;;;;;;;;;;;;;;12.95;100.00;96150.66;4982531;28;20021;-85
2023/04/29 06:51:45;;;;;;;;;;;;;;;12.96;100.00;96151.47;4980964;28;19980;-85
2023/04/29 06:54:11;;;;;;;;;;;;;;;13.05;100.00;96149.97;4983324;28;19937;-85
2023/04/29 06:56:38;;;;;;;;;;;;;;;13.08;100.00;96144.88;5004981;28;19925;-84
2023/04/29 06:59:05;;;;;;;;;;;;;;;13.13;100.00;96139.56;5003077;28;19930;-85
2023/04/29 07:01:35;;;;;;;;;;;;;;;13.18;100.00;96142.31;5014578;28;19926;-85
2023/04/29 07:04:01;;;;;;;;;;;;;;;13.19;100.00;96143.97;4986263;28;19933;-85
2023/04/29 07:06:29;;;;;;;;;;;;;;;13.32;100.00;96147.38;4987571;28;19926;-84
2023/04/29 07:08:56;;;;;;;;;;;;;;;13.40;100.00;96152.38;4986011;28;19936;-84
2023/04/29 07:11:25;;;;;;;;;;;;;;;13.44;100.00;96138.03;4989981;28;19926;-85
2023/04/29 07:13:52;;;;;;;;;;;;;;;13.49;100.00;96138.09;4972863;28;19977;-85
2023/04/29 07:16:20;;;;;;;;;;;;;;;13.58;100.00;96149.31;4976606;28;19980;-84
2023/04/29 07:18:48;;;;;;;;;;;;;;;13.63;100.00;96142.06;4989956;28;20024;-85
2023/04/29 07:21:15;;;;;;;;;;;;;;;13.71;100.00;96146.22;4982258;28;19926;-85
2023/04/29 07:23:43;;;;;;;;;;;;;;;13.79;100.00;96147.66;4989812;28;20005;-84
2023/04/29 07:26:11;;;;;;;;;;;;;;;13.84;100.00;96150.44;4994322;28;19972;-85
2023/04/29 07:28:37;;;;;;;;;;;;;;;13.87;100.00;96142.56;5004247;28;20020;-84
2023/04/29 07:31:06;;;;;;;;;;;;;;;13.85;100.00;96146.66;5023222;28;20054;-84
2023/04/29 07:33:33;;;;;;;;;;;;;;;13.94;100.00;96155.97;4987945;28;19964;-84
2023/04/29 07:36:01;;;;;;;;;;;;;;;13.93;100.00;96148.91;4991814;28;19940;-84
2023/04/29 07:38:29;;;;;;;;;;;;;;;13.97;100.00;96156.25;4981112;28;19926;-84
2023/04/29 07:40:59;;;;;;;;;;;;;;;14.09;100.00;96153.41;4990896;28;19926;-84
2023/04/29 07:43:25;;;;;;;;;;;;;;;14.16;100.00;96155.91;4989894;28;19932;-84
2023/04/29 07:45:52;;;;;;;;;;;;;;;14.25;100.00;96151.63;4991194;28;19926;-84
2023/04/29 07:48:20;;;;;;;;;;;;;;;14.24;100.00;96156.25;5016770;28;19934;-84
2023/04/29 07:50:46;;;;;;;;;;;;;;;14.35;100.00;96154.44;5008644;28;19933;-84
2023/04/29 07:53:14;;;;;;;;;;;;;;;14.45;100.00;96154.56;5027351;28;19926;-85
2023/04/29 07:55:41;;;;;;;;;;;;;;;14.56;100.00;96155.44;4993006;28;19926;-83
2023/04/29 07:58:10;;;;;;;;;;;;;;;14.64;100.00;96150.34;5015603;28;19932;-84
2023/04/29 08:00:39;;;;;;;;;;;;;;;14.74;100.00;96155.03;4987513;28;19973;-84
2023/04/29 08:03:06;;;;;;;;;;;;;;;14.83;100.00;96153.47;4992144;28;19926;-84
2023/04/29 08:05:33;;;;;;;;;;;;;;;14.89;100.00;96152.44;4981949;28;19926;-85
2023/04/29 08:07:59;;;;;;;;;;;;;;;15.06;100.00;96152.25;4989662;28;19926;-84
2023/04/29 08:10:26;;;;;;;;;;;;;;;15.09;100.00;96147.13;4989813;28;19976;-84
2023/04/29 08:12:53;;;;;;;;;;;;;;;15.13;100.00;96153.69;4982400;28;19933;-83
2023/04/29 08:15:23;;;;;;;;;;;;;;;15.25;100.00;96149.91;4996057;28;19930;-84
2023/04/29 08:17:50;;;;;;;;;;;;;;;15.52;100.00;96145.16;4984196;28;19934;-85
2023/04/29 08:20:17;;;;;;;;;;;;;;;15.92;100.00;96149.09;4988858;28;19937;-83
2023/04/29 08:22:43;;;;;;;;;;;;;;;16.26;100.00;96151.09;4999393;28;19953;-84
2023/04/29 08:25:10;;;;;;;;;;;;;;;16.65;100.00;96156.06;5021557;28;19947;-84
2023/04/29 08:27:38;;;;;;;;;;;;;;;16.98;100.00;96154.66;4987578;28;19925;-84
2023/04/29 08:30:06;;;;;;;;;;;;;;;17.09;100.00;96148.09;4981881;28;19933;-84
2023/04/29 08:32:35;;;;;;;;;;;;;;;17.32;100.00;96144.75;5023494;28;20024;-83
2023/04/29 08:35:02;;;;;;;;;;;;;;;17.48;100.00;96150.16;4990774;28;19925;-84
2023/04/29 08:37:30;;;;;;;;;;;;;;;17.64;100.00;96138.91;4986183;28;19934;-85
2023/04/29 08:39:57;;;;;;;;;;;;;;;17.64;100.00;96132.66;5010919;28;19926;-83
2023/04/29 08:42:32;;;;;;;;;;;;;;;17.68;100.00;96133.72;5017372;28;20024;-84
2023/04/29 08:45:00;;;;;;;;;;;;;;;17.63;100.00;96128.28;5019164;28;19949;-84
2023/04/29 08:47:27;;;;;;;;;;;;;;;17.54;100.00;96127.19;4986946;28;20060;-84
2023/04/29 08:49:56;;;;;;;;;;;;;;;17.64;100.00;96127.19;4996814;28;19926;-84
2023/04/29 08:52:22;;;;;;;;;;;;;;;17.76;100.00;96125.78;4998651;28;19926;-83
2023/04/29 08:54:49;;;;;;;;;;;;;;;17.95;100.00;96125.91;5010075;28;19926;-84
2023/04/29 08:57:16;;;;;;;;;;;;;;;17.92;100.00;96118.31;4983648;28;19940;-84
2023/04/29 08:59:44;;;;;;;;;;;;;;;18.06;100.00;96119.31;4992344;28;19930;-84
2023/04/29 09:02:13;;;;;;;;;;;;;;;18.22;100.00;96119.19;4993098;28;19926;-83
2023/04/29 09:04:46;;;;;;;;;;;;;;;18.26;100.00;96129.28;5014564;28;19967;-83
2023/04/29 09:07:14;;;;;;;;;;;;;;;18.18;100.00;96123.59;5013279;28;19954;-84
2023/04/29 09:09:41;;;;;;;;;;;;;;;18.09;100.00;96109.72;5011742;28;19960;-84
2023/04/29 09:12:08;;;;;;;;;;;;;;;18.23;100.00;96115.38;4984543;28;19988;-83
2023/04/29 09:14:36;;;;;;;;;;;;;;;18.30;100.00;96110.38;4990162;28;19971;-83
2023/04/29 09:17:02;;;;;;;;;;;;;;;18.42;100.00;96108.13;5002606;28;20042;-83
2023/04/29 09:19:30;;;;;;;;;;;;;;;18.57;100.00;96101.72;4988157;28;19951;-88
2023/04/29 09:21:57;;;;;;;;;;;;;;;18.53;100.00;96102.28;5016243;28;20118;-83
2023/04/29 09:24:26;;;;;;;;;;;;;;;18.50;100.00;96100.13;4983212;28;19955;-84
2023/04/29 09:26:53;;;;;;;;;;;;;;;18.54;100.00;96103.09;5015312;28;19944;-84
2023/04/29 09:29:20;;;;;;;;;;;;;;;18.64;100.00;96108.50;4979328;28;19948;-84
2023/04/29 09:31:47;;;;;;;;;;;;;;;18.66;100.00;96114.50;4991081;28;20003;-84
2023/04/29 09:34:14;;;;;;;;;;;;;;;18.70;100.00;96107.38;4985885;28;19952;-84
2023/04/29 09:36:44;;;;;;;;;;;;;;;18.94;100.00;96107.41;4980236;28;20027;-84
2023/04/29 09:39:12;;;;;;;;;;;;;;;18.95;100.00;96103.56;4983263;28;19951;-83
2023/04/29 09:41:43;;;;;;;;;;;;;;;19.09;100.00;96103.69;5009182;28;19942;-84
2023/04/29 09:44:10;;;;;;;;;;;;;;;19.28;100.00;96108.13;4986450;28;20011;-84
2023/04/29 09:46:37;;;;;;;;;;;;;;;19.47;100.00;96105.50;4982764;28;19953;-84
2023/04/29 09:49:05;;;;;;;;;;;;;;;19.40;99.01;96110.44;4986049;28;19947;-83
2023/04/29 09:51:33;;;;;;;;;;;;;;;19.49;89.98;96105.16;4986610;28;19954;-84
2023/04/29 09:54:01;;;;;;;;;;;;;;;19.60;88.36;96099.28;5010257;28;19949;-83
2023/04/29 09:56:48;;;;;;;;;;;;;;;19.76;92.57;96091.69;4990954;28;19946;-83
2023/04/29 09:59:16;;;;;;;;;;;;;;;19.73;87.22;96096.94;4986940;28;20033;-84
2023/04/29 10:01:43;;;;;;;;;;;;;;;19.70;85.24;96090.13;5009904;28;19953;-83
2023/04/29 10:04:11;;;;;;;;;;;;;;;19.81;86.63;96085.34;5010920;28;19962;-83
2023/04/29 10:06:38;;;;;;;;;;;;;;;19.95;85.07;96084.28;4983607;28;20004;-84
2023/04/29 10:09:07;;;;;;;;;;;;;;;20.13;88.20;96082.66;4985913;28;19982;-84
2023/04/29 10:11:35;;;;;;;;;;;;;;;20.28;89.70;96079.69;4991201;28;20051;-83
2023/04/29 10:14:03;;;;;;;;;;;;;;;20.24;81.59;96075.09;4994797;28;20032;-84
2023/04/29 10:16:34;;;;;;;;;;;;;;;20.48;78.60;96072.28;4984931;28;19963;-83
2023/04/29 10:19:05;;;;;;;;;;;;;;;20.62;74.95;96073.13;4982799;28;20048;-83
2023/04/29 10:21:33;;;;;;;;;;;;;;;20.61;71.53;96069.56;4980119;28;19959;-84
2023/04/29 10:24:01;;;;;;;;;;;;;;;20.63;72.27;96072.00;4985569;28;19959;-83
2023/04/29 10:26:29;;;;;;;;;;;;;;;20.67;74.91;96067.56;4984359;28;19989;-83
2023/04/29 10:28:56;;;;;;;;;;;;;;;20.82;75.19;96064.53;5010244;28;19946;-83
2023/04/29 10:31:26;;;;;;;;;;;;;;;20.98;74.02;96046.69;4981808;28;20006;-83
2023/04/29 10:33:56;;;;;;;;;;;;;;;21.13;73.47;96045.56;4984519;28;19953;-83
2023/04/29 10:36:23;;;;;;;;;;;;;;;21.24;72.08;96043.47;4978030;28;19950;-83
2023/04/29 10:38:52;;;;;;;;;;;;;;;21.27;73.40;96037.34;4987591;28;19940;-83
2023/04/29 10:41:20;;;;;;;;;;;;;;;21.23;69.47;96041.84;4989240;28;20187;-83
2023/04/29 10:43:47;;;;;;;;;;;;;;;21.20;69.99;96045.19;4988026;28;19959;-83
2023/04/29 10:46:17;;;;;;;;;;;;;;;21.29;70.12;96037.84;4976256;28;19995;-83
2023/04/29 10:48:44;;;;;;;;;;;;;;;21.15;71.27;96033.16;4976134;28;19987;-83
2023/04/29 10:51:13;;;;;;;;;;;;;;;21.28;70.53;96028.00;4988120;28;19945;-83
2023/04/29 10:54:00;;;;;;;;;;;;;;;21.41;70.59;96022.50;4981115;28;20019;-83
2023/04/29 10:56:49;;;;;;;;;;;;;;;21.64;70.71;96026.13;5017858;28;19956;-81
2023/04/29 10:59:16;;;;;;;;;;;;;;;21.75;70.08;96027.53;4985422;28;19977;-82
2023/04/29 11:01:45;;;;;;;;;;;;;;;21.53;68.70;96017.28;4972006;28;19950;-83
2023/04/29 11:04:12;;;;;;;;;;;;;;;21.08;69.85;96010.78;4983577;28;19960;-83
2023/04/29 11:06:41;;;;;;;;;;;;;;;21.09;74.35;96004.19;4985824;28;20130;-83
2023/04/29 11:09:09;;;;;;;;;;;;;;;21.34;74.68;96011.13;4987001;28;19971;-83
2023/04/29 11:11:43;;;;;;;;;;;;;;;21.74;71.32;96011.34;4994328;28;20133;-83
2023/04/29 11:14:11;;;;;;;;;;;;;;;22.00;70.22;96017.09;4999854;28;19958;-83
2023/04/29 11:16:38;;;;;;;;;;;;;;;21.86;70.69;96009.66;4987208;28;20005;-83
2023/04/29 11:19:07;;;;;;;;;;;;;;;22.02;72.81;96010.19;4985591;28;20261;-83
2023/04/29 11:21:35;;;;;;;;;;;;;;;22.09;71.78;96005.06;5017401;28;19944;-82
2023/04/29 11:24:05;;;;;;;;;;;;;;;22.17;70.62;96006.25;4987876;28;19964;-83
2023/04/29 11:26:32;;;;;;;;;;;;;;;21.68;68.55;95999.66;4990020;28;20014;-82
2023/04/29 11:28:58;;;;;;;;;;;;;;;21.47;72.98;95992.97;4985584;28;19942;-83
2023/04/29 11:31:30;;;;;;;;;;;;;;;21.14;72.01;95990.34;4988635;28;19951;-83
2023/04/29 11:33:57;;;;;;;;;;;;;;;21.36;73.63;95986.06;5012989;28;20059;-83
2023/04/29 11:36:24;;;;;;;;;;;;;;;21.64;75.16;95982.16;5015608;28;19945;-83
2023/04/29 11:38:51;;;;;;;;;;;;;;;21.90;73.82;95980.44;4985515;28;19987;-83
2023/04/29 11:41:20;;;;;;;;;;;;;;;22.03;72.51;95989.00;4985135;28;19968;-83
2023/04/29 11:43:47;;;;;;;;;;;;;;;22.09;70.66;95976.75;4982880;28;20025;-83
2023/04/29 11:46:14;;;;;;;;;;;;;;;22.05;70.74;95981.22;4978865;28;19949;-83
2023/04/29 11:48:46;;;;;;;;;;;;;;;21.86;70.86;95982.19;5016530;28;20015;-84
2023/04/29 11:51:14;;;;;;;;;;;;;;;21.87;70.61;95981.06;5019160;28;19940;-83
2023/04/29 11:53:41;;;;;;;;;;;;;;;21.95;71.84;95987.75;4989456;28;20011;-83
2023/04/29 11:56:08;;;;;;;;;;;;;;;21.79;71.66;95973.56;4988030;28;19942;-83
2023/04/29 11:58:36;;;;;;;;;;;;;;;21.68;72.21;95987.88;4982905;28;20072;-83
2023/04/29 12:01:04;;;;;;;;;;;;;;;21.49;70.93;95979.75;4979785;28;19943;-83
2023/04/29 12:03:32;;;;;;;;;;;;;;;21.47;74.37;95969.06;4977064;28;19956;-84
2023/04/29 12:05:59;;;;;;;;;;;;;;;21.42;74.22;95969.19;4985063;28;20000;-83
2023/04/29 12:08:26;;;;;;;;;;;;;;;21.41;74.02;95964.00;4987210;28;20012;-84
2023/04/29 12:10:54;;;;;;;;;;;;;;;21.35;75.71;95955.06;4984645;28;19989;-84
2023/04/29 12:13:23;;;;;;;;;;;;;;;21.58;76.01;95955.94;4984615;28;19961;-83
2023/04/29 12:15:51;;;;;;;;;;;;;;;21.62;72.34;95956.09;4989313;28;20041;-83
2023/04/29 12:18:18;;;;;;;;;;;;;;;21.62;71.24;95956.94;4979006;28;19948;-84
2023/04/29 12:20:47;;;;;;;;;;;;;;;21.77;72.02;95955.78;4984760;28;19945;-83
2023/04/29 12:23:14;;;;;;;;;;;;;;;21.87;70.41;95959.06;4986827;28;19987;-83
2023/04/29 12:25:41;;;;;;;;;;;;;;;21.79;69.58;95957.06;4991052;28;19966;-83
2023/04/29 12:28:11;;;;;;;;;;;;;;;21.64;70.51;95954.69;4986431;28;19943;-83
2023/04/29 12:30:38;;;;;;;;;;;;;;;21.62;72.22;95956.09;4989252;28;19991;-83
2023/04/29 12:33:07;;;;;;;;;;;;;;;21.45;74.14;95959.50;4987816;28;19940;-83
2023/04/29 12:35:34;;;;;;;;;;;;;;;21.37;73.29;95954.75;4979884;28;19967;-83
2023/04/29 12:38:01;;;;;;;;;;;;;;;21.31;73.61;95958.72;5017922;28;19947;-83
2023/04/29 12:40:28;;;;;;;;;;;;;;;21.17;75.04;95946.94;5018261;28;19955;-84
2023/04/29 12:42:55;;;;;;;;;;;;;;;21.18;74.26;95945.84;4989339;28;19974;-83
2023/04/29 12:45:32;;;;;;;;;;;;;;;21.08;74.32;95947.66;4989462;28;19973;-83
2023/04/29 12:47:59;;;;;;;;;;;;;;;21.00;73.02;95951.13;5021740;28;19951;-84